sensor_id;sensor_type;location;lat;lon;timestamp;P1;durP1;ratioP1;P2;durP2;ratioP2
19107;SDS011;9686;48.832;9.126;2023-11-22T00:01:34;2.07;;;1.33;;
19107;SDS011;9686;48.832;9.126;2023-11-22T00:03:59;1.33;;;1.23;;
19107;SDS011;9686;48.832;9.126;2023-11-22T00:06:25;1.53;;;1.37;;
19107;SDS011;9686;48.832;9.126;2023-11-22T00:08:52;1.43;;;1.20;;
19107;SDS011;9686;48.832;9.126;2023-11-22T00:11:17;1.93;;;1.70;;
19107;SDS011;9686;48.832;9.126;2023-11-22T00:13:43;2.40;;;2.20;;
19107;SDS011;9686;48.832;9.126;2023-11-22T00:16:08;3.00;;;1.53;;
19107;SDS011;9686;48.832;9.126;2023-11-22T00:18:34;2.57;;;2.13;;
19107;SDS011;9686;48.832;9.126;2023-11-22T00:21:05;1.90;;;1.70;;
19107;SDS011;9686;48.832;9.126;2023-11-22T00:23:31;3.40;;;2.30;;
19107;SDS011;9686;48.832;9.126;2023-11-22T00:25:57;3.00;;;2.40;;
19107;SDS011;9686;48.832;9.126;2023-11-22T00:28:22;3.00;;;2.60;;
19107;SDS011;9686;48.832;9.126;2023-11-22T00:30:48;2.50;;;2.30;;
19107;SDS011;9686;48.832;9.126;2023-11-22T00:33:13;2.17;;;1.97;;
19107;SDS011;9686;48.832;9.126;2023-11-22T00:35:39;2.30;;;2.10;;
19107;SDS011;9686;48.832;9.126;2023-11-22T00:38:05;3.20;;;2.90;;
19107;SDS011;9686;48.832;9.126;2023-11-22T00:40:30;2.83;;;2.63;;
19107;SDS011;9686;48.832;9.126;2023-11-22T00:42:55;2.33;;;2.20;;
19107;SDS011;9686;48.832;9.126;2023-11-22T00:45:21;4.37;;;2.97;;
19107;SDS011;9686;48.832;9.126;2023-11-22T00:47:46;3.33;;;2.73;;
19107;SDS011;9686;48.832;9.126;2023-11-22T00:50:13;3.57;;;2.43;;
19107;SDS011;9686;48.832;9.126;2023-11-22T00:52:38;2.40;;;2.17;;
19107;SDS011;9686;48.832;9.126;2023-11-22T00:55:04;3.20;;;2.80;;
19107;SDS011;9686;48.832;9.126;2023-11-22T00:57:30;2.47;;;2.17;;
19107;SDS011;9686;48.832;9.126;2023-11-22T00:59:55;6.37;;;3.10;;
19107;SDS011;9686;48.832;9.126;2023-11-22T01:02:21;3.07;;;2.40;;
19107;SDS011;9686;48.832;9.126;2023-11-22T01:04:46;3.07;;;2.33;;
19107;SDS011;9686;48.832;9.126;2023-11-22T01:07:11;2.60;;;2.40;;
19107;SDS011;9686;48.832;9.126;2023-11-22T01:09:36;2.80;;;2.50;;
19107;SDS011;9686;48.832;9.126;2023-11-22T01:12:02;3.53;;;2.80;;
19107;SDS011;9686;48.832;9.126;2023-11-22T01:14:27;3.40;;;3.10;;
19107;SDS011;9686;48.832;9.126;2023-11-22T01:16:53;3.07;;;2.83;;
19107;SDS011;9686;48.832;9.126;2023-11-22T01:19:22;2.23;;;2.00;;
19107;SDS011;9686;48.832;9.126;2023-11-22T01:21:47;2.17;;;1.97;;
19107;SDS011;9686;48.832;9.126;2023-11-22T01:24:12;1.83;;;1.73;;
19107;SDS011;9686;48.832;9.126;2023-11-22T01:26:38;3.53;;;2.83;;
19107;SDS011;9686;48.832;9.126;2023-11-22T01:29:03;2.27;;;1.87;;
19107;SDS011;9686;48.832;9.126;2023-11-22T01:31:29;4.00;;;2.30;;
19107;SDS011;9686;48.832;9.126;2023-11-22T01:33:54;7.50;;;1.97;;
19107;SDS011;9686;48.832;9.126;2023-11-22T01:36:20;3.63;;;2.20;;
19107;SDS011;9686;48.832;9.126;2023-11-22T01:38:45;1.90;;;1.33;;
19107;SDS011;9686;48.832;9.126;2023-11-22T01:41:11;2.20;;;2.03;;
19107;SDS011;9686;48.832;9.126;2023-11-22T01:43:40;2.27;;;1.47;;
19107;SDS011;9686;48.832;9.126;2023-11-22T01:46:10;2.10;;;1.90;;
19107;SDS011;9686;48.832;9.126;2023-11-22T01:48:47;1.83;;;1.30;;
19107;SDS011;9686;48.832;9.126;2023-11-22T01:51:13;2.13;;;1.93;;
19107;SDS011;9686;48.832;9.126;2023-11-22T01:53:39;1.40;;;1.30;;
19107;SDS011;9686;48.832;9.126;2023-11-22T01:56:04;1.83;;;1.13;;
19107;SDS011;9686;48.832;9.126;2023-11-22T01:58:30;2.30;;;1.90;;
19107;SDS011;9686;48.832;9.126;2023-11-22T02:00:55;2.20;;;1.53;;
19107;SDS011;9686;48.832;9.126;2023-11-22T02:03:23;2.27;;;1.80;;
19107;SDS011;9686;48.832;9.126;2023-11-22T02:05:48;4.80;;;1.97;;
19107;SDS011;9686;48.832;9.126;2023-11-22T02:08:15;1.77;;;1.67;;
19107;SDS011;9686;48.832;9.126;2023-11-22T02:10:40;4.40;;;2.20;;
19107;SDS011;9686;48.832;9.126;2023-11-22T02:13:06;1.67;;;1.57;;
19107;SDS011;9686;48.832;9.126;2023-11-22T02:15:36;2.10;;;1.43;;
19107;SDS011;9686;48.832;9.126;2023-11-22T02:18:02;1.27;;;1.17;;
19107;SDS011;9686;48.832;9.126;2023-11-22T02:20:30;2.10;;;1.43;;
19107;SDS011;9686;48.832;9.126;2023-11-22T02:22:55;3.07;;;1.93;;
19107;SDS011;9686;48.832;9.126;2023-11-22T02:25:22;2.83;;;2.03;;
19107;SDS011;9686;48.832;9.126;2023-11-22T02:27:47;1.70;;;1.60;;
19107;SDS011;9686;48.832;9.126;2023-11-22T02:30:13;1.93;;;1.60;;
19107;SDS011;9686;48.832;9.126;2023-11-22T02:32:38;2.17;;;1.97;;
19107;SDS011;9686;48.832;9.126;2023-11-22T02:35:04;3.70;;;2.07;;
19107;SDS011;9686;48.832;9.126;2023-11-22T02:37:32;2.73;;;1.80;;
19107;SDS011;9686;48.832;9.126;2023-11-22T02:40:17;2.80;;;1.93;;
19107;SDS011;9686;48.832;9.126;2023-11-22T02:42:44;1.33;;;1.23;;
19107;SDS011;9686;48.832;9.126;2023-11-22T02:45:13;2.47;;;1.37;;
19107;SDS011;9686;48.832;9.126;2023-11-22T02:47:39;2.67;;;2.00;;
19107;SDS011;9686;48.832;9.126;2023-11-22T02:50:05;1.80;;;1.70;;
19107;SDS011;9686;48.832;9.126;2023-11-22T02:52:31;2.17;;;1.73;;
19107;SDS011;9686;48.832;9.126;2023-11-22T02:54:57;2.73;;;2.03;;
19107;SDS011;9686;48.832;9.126;2023-11-22T02:57:22;2.70;;;1.57;;
19107;SDS011;9686;48.832;9.126;2023-11-22T02:59:48;2.27;;;2.07;;
19107;SDS011;9686;48.832;9.126;2023-11-22T03:02:13;1.80;;;1.70;;
19107;SDS011;9686;48.832;9.126;2023-11-22T03:04:41;1.70;;;1.60;;
19107;SDS011;9686;48.832;9.126;2023-11-22T03:07:06;2.10;;;1.90;;
19107;SDS011;9686;48.832;9.126;2023-11-22T03:09:32;2.93;;;2.07;;
19107;SDS011;9686;48.832;9.126;2023-11-22T03:11:57;2.87;;;2.30;;
19107;SDS011;9686;48.832;9.126;2023-11-22T03:14:22;2.50;;;2.27;;
19107;SDS011;9686;48.832;9.126;2023-11-22T03:16:48;2.83;;;2.43;;
19107;SDS011;9686;48.832;9.126;2023-11-22T03:19:14;2.53;;;2.27;;
19107;SDS011;9686;48.832;9.126;2023-11-22T03:21:39;2.13;;;2.03;;
19107;SDS011;9686;48.832;9.126;2023-11-22T03:24:06;2.47;;;2.27;;
19107;SDS011;9686;48.832;9.126;2023-11-22T03:26:33;2.20;;;1.97;;
19107;SDS011;9686;48.832;9.126;2023-11-22T03:28:59;3.67;;;2.60;;
19107;SDS011;9686;48.832;9.126;2023-11-22T03:31:24;2.73;;;2.53;;
19107;SDS011;9686;48.832;9.126;2023-11-22T03:33:49;2.53;;;2.33;;
19107;SDS011;9686;48.832;9.126;2023-11-22T03:36:15;2.57;;;2.37;;
19107;SDS011;9686;48.832;9.126;2023-11-22T03:38:40;3.40;;;2.33;;
19107;SDS011;9686;48.832;9.126;2023-11-22T03:41:05;3.87;;;2.57;;
19107;SDS011;9686;48.832;9.126;2023-11-22T03:43:31;2.37;;;2.17;;
19107;SDS011;9686;48.832;9.126;2023-11-22T03:45:56;2.70;;;2.33;;
19107;SDS011;9686;48.832;9.126;2023-11-22T03:48:21;3.97;;;2.67;;
19107;SDS011;9686;48.832;9.126;2023-11-22T03:50:48;2.20;;;2.00;;
19107;SDS011;9686;48.832;9.126;2023-11-22T03:53:14;2.80;;;1.90;;
19107;SDS011;9686;48.832;9.126;2023-11-22T03:55:39;1.93;;;1.73;;
19107;SDS011;9686;48.832;9.126;2023-11-22T03:58:05;1.47;;;1.37;;
19107;SDS011;9686;48.832;9.126;2023-11-22T04:00:30;2.07;;;1.93;;
19107;SDS011;9686;48.832;9.126;2023-11-22T04:02:57;3.93;;;1.80;;
19107;SDS011;9686;48.832;9.126;2023-11-22T04:05:24;3.80;;;2.97;;
19107;SDS011;9686;48.832;9.126;2023-11-22T04:07:50;2.50;;;2.27;;
19107;SDS011;9686;48.832;9.126;2023-11-22T04:10:16;2.47;;;2.20;;
19107;SDS011;9686;48.832;9.126;2023-11-22T04:12:42;2.10;;;1.90;;
19107;SDS011;9686;48.832;9.126;2023-11-22T04:15:07;3.43;;;2.33;;
19107;SDS011;9686;48.832;9.126;2023-11-22T04:17:36;3.13;;;2.07;;
19107;SDS011;9686;48.832;9.126;2023-11-22T04:20:05;2.10;;;1.97;;
19107;SDS011;9686;48.832;9.126;2023-11-22T04:22:35;2.07;;;1.83;;
19107;SDS011;9686;48.832;9.126;2023-11-22T04:25:12;2.40;;;2.20;;
19107;SDS011;9686;48.832;9.126;2023-11-22T04:27:40;1.90;;;1.70;;
19107;SDS011;9686;48.832;9.126;2023-11-22T04:30:06;2.27;;;2.00;;
19107;SDS011;9686;48.832;9.126;2023-11-22T04:32:39;2.80;;;2.03;;
19107;SDS011;9686;48.832;9.126;2023-11-22T04:35:05;2.30;;;2.10;;
19107;SDS011;9686;48.832;9.126;2023-11-22T04:37:31;2.37;;;2.17;;
19107;SDS011;9686;48.832;9.126;2023-11-22T04:39:57;2.03;;;1.83;;
19107;SDS011;9686;48.832;9.126;2023-11-22T04:42:23;18.90;;;2.60;;
19107;SDS011;9686;48.832;9.126;2023-11-22T04:44:48;2.50;;;2.30;;
19107;SDS011;9686;48.832;9.126;2023-11-22T04:47:14;2.17;;;1.70;;
19107;SDS011;9686;48.832;9.126;2023-11-22T04:49:39;1.47;;;1.37;;
19107;SDS011;9686;48.832;9.126;2023-11-22T04:52:04;1.43;;;1.33;;
19107;SDS011;9686;48.832;9.126;2023-11-22T04:54:30;4.10;;;1.33;;
19107;SDS011;9686;48.832;9.126;2023-11-22T04:56:56;5.70;;;2.00;;
19107;SDS011;9686;48.832;9.126;2023-11-22T04:59:22;2.97;;;2.43;;
19107;SDS011;9686;48.832;9.126;2023-11-22T05:01:47;2.97;;;1.47;;
19107;SDS011;9686;48.832;9.126;2023-11-22T05:04:13;1.63;;;1.37;;
19107;SDS011;9686;48.832;9.126;2023-11-22T05:06:39;1.90;;;1.77;;
19107;SDS011;9686;48.832;9.126;2023-11-22T05:09:04;2.83;;;1.73;;
19107;SDS011;9686;48.832;9.126;2023-11-22T05:11:30;2.67;;;2.07;;
19107;SDS011;9686;48.832;9.126;2023-11-22T05:13:56;2.10;;;1.90;;
19107;SDS011;9686;48.832;9.126;2023-11-22T05:16:21;2.03;;;1.80;;
19107;SDS011;9686;48.832;9.126;2023-11-22T05:18:46;2.37;;;2.03;;
19107;SDS011;9686;48.832;9.126;2023-11-22T05:21:11;5.13;;;1.83;;
19107;SDS011;9686;48.832;9.126;2023-11-22T05:23:37;1.93;;;1.60;;
19107;SDS011;9686;48.832;9.126;2023-11-22T05:26:02;3.20;;;1.73;;
19107;SDS011;9686;48.832;9.126;2023-11-22T05:28:30;1.80;;;1.70;;
19107;SDS011;9686;48.832;9.126;2023-11-22T05:30:56;1.70;;;1.60;;
19107;SDS011;9686;48.832;9.126;2023-11-22T05:33:21;2.13;;;1.93;;
19107;SDS011;9686;48.832;9.126;2023-11-22T05:35:47;1.90;;;1.80;;
19107;SDS011;9686;48.832;9.126;2023-11-22T05:38:13;1.80;;;1.60;;
19107;SDS011;9686;48.832;9.126;2023-11-22T05:40:38;1.80;;;1.60;;
19107;SDS011;9686;48.832;9.126;2023-11-22T05:43:04;1.73;;;1.63;;
19107;SDS011;9686;48.832;9.126;2023-11-22T05:45:29;1.80;;;1.67;;
19107;SDS011;9686;48.832;9.126;2023-11-22T05:47:55;1.20;;;1.10;;
19107;SDS011;9686;48.832;9.126;2023-11-22T05:50:20;1.13;;;1.07;;
19107;SDS011;9686;48.832;9.126;2023-11-22T05:52:46;1.70;;;1.13;;
19107;SDS011;9686;48.832;9.126;2023-11-22T05:55:11;1.80;;;1.70;;
19107;SDS011;9686;48.832;9.126;2023-11-22T05:57:39;1.60;;;1.50;;
19107;SDS011;9686;48.832;9.126;2023-11-22T06:00:05;1.10;;;1.00;;
19107;SDS011;9686;48.832;9.126;2023-11-22T06:02:31;2.30;;;1.53;;
19107;SDS011;9686;48.832;9.126;2023-11-22T06:04:56;4.00;;;1.70;;
19107;SDS011;9686;48.832;9.126;2023-11-22T06:07:22;4.37;;;1.70;;
19107;SDS011;9686;48.832;9.126;2023-11-22T06:09:47;3.73;;;2.07;;
19107;SDS011;9686;48.832;9.126;2023-11-22T06:12:13;2.57;;;1.70;;
19107;SDS011;9686;48.832;9.126;2023-11-22T06:14:39;2.03;;;1.83;;
19107;SDS011;9686;48.832;9.126;2023-11-22T06:17:04;2.13;;;1.47;;
19107;SDS011;9686;48.832;9.126;2023-11-22T06:19:30;1.63;;;1.53;;
19107;SDS011;9686;48.832;9.126;2023-11-22T06:21:55;1.97;;;1.63;;
19107;SDS011;9686;48.832;9.126;2023-11-22T06:24:21;2.93;;;2.30;;
19107;SDS011;9686;48.832;9.126;2023-11-22T06:26:46;2.40;;;1.73;;
19107;SDS011;9686;48.832;9.126;2023-11-22T06:29:12;1.90;;;1.77;;
19107;SDS011;9686;48.832;9.126;2023-11-22T06:31:37;1.47;;;1.37;;
19107;SDS011;9686;48.832;9.126;2023-11-22T06:34:03;1.10;;;1.07;;
19107;SDS011;9686;48.832;9.126;2023-11-22T06:36:28;1.57;;;1.47;;
19107;SDS011;9686;48.832;9.126;2023-11-22T06:38:54;1.87;;;1.33;;
19107;SDS011;9686;48.832;9.126;2023-11-22T06:41:20;2.00;;;1.50;;
19107;SDS011;9686;48.832;9.126;2023-11-22T06:43:46;0.90;;;0.90;;
19107;SDS011;9686;48.832;9.126;2023-11-22T06:46:12;1.70;;;1.27;;
19107;SDS011;9686;48.832;9.126;2023-11-22T06:48:38;4.20;;;2.30;;
19107;SDS011;9686;48.832;9.126;2023-11-22T06:51:03;2.43;;;1.73;;
19107;SDS011;9686;48.832;9.126;2023-11-22T06:53:28;2.17;;;1.97;;
19107;SDS011;9686;48.832;9.126;2023-11-22T06:55:53;1.60;;;1.50;;
19107;SDS011;9686;48.832;9.126;2023-11-22T06:58:19;1.60;;;1.17;;
19107;SDS011;9686;48.832;9.126;2023-11-22T07:00:44;2.23;;;1.57;;
19107;SDS011;9686;48.832;9.126;2023-11-22T07:03:09;12.07;;;1.27;;
19107;SDS011;9686;48.832;9.126;2023-11-22T07:05:35;2.17;;;1.37;;
19107;SDS011;9686;48.832;9.126;2023-11-22T07:08:01;2.23;;;1.40;;
19107;SDS011;9686;48.832;9.126;2023-11-22T07:10:28;1.77;;;1.10;;
19107;SDS011;9686;48.832;9.126;2023-11-22T07:12:53;1.70;;;1.33;;
19107;SDS011;9686;48.832;9.126;2023-11-22T07:15:19;2.23;;;1.03;;
19107;SDS011;9686;48.832;9.126;2023-11-22T07:17:44;2.13;;;1.13;;
19107;SDS011;9686;48.832;9.126;2023-11-22T07:20:10;2.17;;;1.13;;
19107;SDS011;9686;48.832;9.126;2023-11-22T07:22:40;1.30;;;1.00;;
19107;SDS011;9686;48.832;9.126;2023-11-22T07:25:08;1.67;;;1.30;;
19107;SDS011;9686;48.832;9.126;2023-11-22T07:27:42;1.80;;;1.27;;
19107;SDS011;9686;48.832;9.126;2023-11-22T07:30:09;2.07;;;1.70;;
19107;SDS011;9686;48.832;9.126;2023-11-22T07:32:34;1.07;;;0.90;;
19107;SDS011;9686;48.832;9.126;2023-11-22T07:34:59;3.83;;;1.40;;
19107;SDS011;9686;48.832;9.126;2023-11-22T07:37:28;1.37;;;1.27;;
19107;SDS011;9686;48.832;9.126;2023-11-22T07:39:53;1.53;;;1.43;;
19107;SDS011;9686;48.832;9.126;2023-11-22T07:42:19;2.10;;;1.37;;
19107;SDS011;9686;48.832;9.126;2023-11-22T07:44:44;1.10;;;0.90;;
19107;SDS011;9686;48.832;9.126;2023-11-22T07:47:09;1.57;;;1.40;;
19107;SDS011;9686;48.832;9.126;2023-11-22T07:49:38;1.57;;;1.17;;
19107;SDS011;9686;48.832;9.126;2023-11-22T07:52:04;1.83;;;1.73;;
19107;SDS011;9686;48.832;9.126;2023-11-22T07:54:30;0.90;;;0.90;;
19107;SDS011;9686;48.832;9.126;2023-11-22T07:56:56;1.63;;;1.47;;
19107;SDS011;9686;48.832;9.126;2023-11-22T07:59:21;1.23;;;1.13;;
19107;SDS011;9686;48.832;9.126;2023-11-22T08:01:47;1.00;;;0.90;;
19107;SDS011;9686;48.832;9.126;2023-11-22T08:04:14;1.50;;;1.30;;
19107;SDS011;9686;48.832;9.126;2023-11-22T08:06:40;1.07;;;0.97;;
19107;SDS011;9686;48.832;9.126;2023-11-22T08:09:07;1.87;;;1.20;;
19107;SDS011;9686;48.832;9.126;2023-11-22T08:11:34;1.30;;;1.20;;
19107;SDS011;9686;48.832;9.126;2023-11-22T08:14:00;1.60;;;1.30;;
19107;SDS011;9686;48.832;9.126;2023-11-22T08:16:26;1.30;;;1.20;;
19107;SDS011;9686;48.832;9.126;2023-11-22T08:18:52;2.03;;;1.50;;
19107;SDS011;9686;48.832;9.126;2023-11-22T08:21:17;1.93;;;1.60;;
19107;SDS011;9686;48.832;9.126;2023-11-22T08:23:43;1.30;;;1.20;;
19107;SDS011;9686;48.832;9.126;2023-11-22T08:26:11;2.83;;;1.63;;
19107;SDS011;9686;48.832;9.126;2023-11-22T08:28:37;1.70;;;1.60;;
19107;SDS011;9686;48.832;9.126;2023-11-22T08:31:03;1.37;;;1.27;;
19107;SDS011;9686;48.832;9.126;2023-11-22T08:33:35;1.93;;;1.73;;
19107;SDS011;9686;48.832;9.126;2023-11-22T08:36:07;1.30;;;1.20;;
19107;SDS011;9686;48.832;9.126;2023-11-22T08:38:33;2.00;;;1.13;;
19107;SDS011;9686;48.832;9.126;2023-11-22T08:41:03;9.10;;;1.63;;
19107;SDS011;9686;48.832;9.126;2023-11-22T08:43:29;1.63;;;1.33;;
19107;SDS011;9686;48.832;9.126;2023-11-22T08:45:54;1.40;;;1.37;;
19107;SDS011;9686;48.832;9.126;2023-11-22T08:48:19;1.10;;;1.10;;
19107;SDS011;9686;48.832;9.126;2023-11-22T08:50:45;3.07;;;2.07;;
19107;SDS011;9686;48.832;9.126;2023-11-22T08:53:12;1.40;;;1.20;;
19107;SDS011;9686;48.832;9.126;2023-11-22T08:55:37;2.27;;;2.07;;
19107;SDS011;9686;48.832;9.126;2023-11-22T08:58:03;1.40;;;1.30;;
19107;SDS011;9686;48.832;9.126;2023-11-22T09:00:28;1.93;;;1.70;;
19107;SDS011;9686;48.832;9.126;2023-11-22T09:02:57;2.43;;;1.70;;
19107;SDS011;9686;48.832;9.126;2023-11-22T09:05:23;7.53;;;2.20;;
19107;SDS011;9686;48.832;9.126;2023-11-22T09:07:48;2.03;;;1.60;;
19107;SDS011;9686;48.832;9.126;2023-11-22T09:10:13;1.40;;;1.30;;
19107;SDS011;9686;48.832;9.126;2023-11-22T09:12:39;2.57;;;1.80;;
19107;SDS011;9686;48.832;9.126;2023-11-22T09:15:10;2.60;;;2.20;;
19107;SDS011;9686;48.832;9.126;2023-11-22T09:17:38;2.33;;;1.73;;
19107;SDS011;9686;48.832;9.126;2023-11-22T09:20:10;4.40;;;2.10;;
19107;SDS011;9686;48.832;9.126;2023-11-22T09:22:41;2.37;;;1.47;;
19107;SDS011;9686;48.832;9.126;2023-11-22T09:25:10;2.63;;;1.93;;
19107;SDS011;9686;48.832;9.126;2023-11-22T09:27:36;1.63;;;1.13;;
19107;SDS011;9686;48.832;9.126;2023-11-22T09:30:02;1.37;;;1.30;;
19107;SDS011;9686;48.832;9.126;2023-11-22T09:32:28;1.63;;;1.53;;
19107;SDS011;9686;48.832;9.126;2023-11-22T09:34:54;3.27;;;1.93;;
19107;SDS011;9686;48.832;9.126;2023-11-22T09:37:22;2.73;;;1.90;;
19107;SDS011;9686;48.832;9.126;2023-11-22T09:39:48;2.90;;;1.90;;
19107;SDS011;9686;48.832;9.126;2023-11-22T09:42:13;3.30;;;1.93;;
19107;SDS011;9686;48.832;9.126;2023-11-22T09:44:39;1.93;;;1.50;;
19107;SDS011;9686;48.832;9.126;2023-11-22T09:47:04;1.80;;;1.70;;
19107;SDS011;9686;48.832;9.126;2023-11-22T09:49:30;3.87;;;2.90;;
19107;SDS011;9686;48.832;9.126;2023-11-22T09:51:56;2.33;;;2.07;;
19107;SDS011;9686;48.832;9.126;2023-11-22T09:54:28;2.00;;;1.77;;
19107;SDS011;9686;48.832;9.126;2023-11-22T09:56:55;1.77;;;1.60;;
19107;SDS011;9686;48.832;9.126;2023-11-22T09:59:23;2.20;;;1.83;;
19107;SDS011;9686;48.832;9.126;2023-11-22T10:01:49;3.77;;;1.60;;
19107;SDS011;9686;48.832;9.126;2023-11-22T10:04:14;3.03;;;2.20;;
19107;SDS011;9686;48.832;9.126;2023-11-22T10:06:40;3.27;;;1.90;;
19107;SDS011;9686;48.832;9.126;2023-11-22T10:09:11;2.33;;;1.90;;
19107;SDS011;9686;48.832;9.126;2023-11-22T10:11:38;1.43;;;1.33;;
19107;SDS011;9686;48.832;9.126;2023-11-22T10:14:08;1.97;;;1.20;;
19107;SDS011;9686;48.832;9.126;2023-11-22T10:16:34;2.03;;;1.83;;
19107;SDS011;9686;48.832;9.126;2023-11-22T10:18:59;2.33;;;2.10;;
19107;SDS011;9686;48.832;9.126;2023-11-22T10:21:25;2.50;;;2.10;;
19107;SDS011;9686;48.832;9.126;2023-11-22T10:23:54;1.80;;;1.70;;
19107;SDS011;9686;48.832;9.126;2023-11-22T10:26:21;2.20;;;2.00;;
19107;SDS011;9686;48.832;9.126;2023-11-22T10:28:49;19.83;;;1.77;;
19107;SDS011;9686;48.832;9.126;2023-11-22T10:31:15;2.40;;;2.17;;
19107;SDS011;9686;48.832;9.126;2023-11-22T10:33:42;5.47;;;2.10;;
19107;SDS011;9686;48.832;9.126;2023-11-22T10:36:08;1.60;;;1.50;;
19107;SDS011;9686;48.832;9.126;2023-11-22T10:38:34;1.77;;;1.53;;
19107;SDS011;9686;48.832;9.126;2023-11-22T10:41:03;3.07;;;2.30;;
19107;SDS011;9686;48.832;9.126;2023-11-22T10:43:35;7.13;;;2.33;;
19107;SDS011;9686;48.832;9.126;2023-11-22T10:46:04;3.37;;;2.10;;
19107;SDS011;9686;48.832;9.126;2023-11-22T10:48:31;2.70;;;1.77;;
19107;SDS011;9686;48.832;9.126;2023-11-22T10:51:00;2.43;;;1.87;;
19107;SDS011;9686;48.832;9.126;2023-11-22T10:53:33;2.70;;;2.00;;
19107;SDS011;9686;48.832;9.126;2023-11-22T10:58:52;2.57;;;1.63;;
19107;SDS011;9686;48.832;9.126;2023-11-22T11:01:23;2.47;;;2.17;;
19107;SDS011;9686;48.832;9.126;2023-11-22T11:03:56;2.53;;;2.27;;
19107;SDS011;9686;48.832;9.126;2023-11-22T11:06:42;3.13;;;2.33;;
19107;SDS011;9686;48.832;9.126;2023-11-22T11:09:11;3.03;;;2.50;;
19107;SDS011;9686;48.832;9.126;2023-11-22T11:11:40;3.23;;;1.93;;
19107;SDS011;9686;48.832;9.126;2023-11-22T11:14:06;1.77;;;1.47;;
19107;SDS011;9686;48.832;9.126;2023-11-22T11:16:37;2.03;;;1.87;;
19107;SDS011;9686;48.832;9.126;2023-11-22T11:19:06;2.20;;;2.00;;
19107;SDS011;9686;48.832;9.126;2023-11-22T11:21:32;4.87;;;2.43;;
19107;SDS011;9686;48.832;9.126;2023-11-22T11:23:58;3.87;;;2.73;;
19107;SDS011;9686;48.832;9.126;2023-11-22T11:26:28;1.80;;;1.70;;
19107;SDS011;9686;48.832;9.126;2023-11-22T11:28:54;1.70;;;1.60;;
19107;SDS011;9686;48.832;9.126;2023-11-22T11:31:22;3.43;;;2.07;;
19107;SDS011;9686;48.832;9.126;2023-11-22T11:36:21;2.57;;;1.83;;
19107;SDS011;9686;48.832;9.126;2023-11-22T11:39:06;1.73;;;1.63;;
19107;SDS011;9686;48.832;9.126;2023-11-22T11:41:39;3.70;;;1.97;;
19107;SDS011;9686;48.832;9.126;2023-11-22T11:44:09;2.47;;;1.93;;
19107;SDS011;9686;48.832;9.126;2023-11-22T11:46:39;3.00;;;2.20;;
19107;SDS011;9686;48.832;9.126;2023-11-22T11:49:08;3.03;;;1.80;;
19107;SDS011;9686;48.832;9.126;2023-11-22T11:51:36;2.73;;;2.50;;
19107;SDS011;9686;48.832;9.126;2023-11-22T11:54:02;2.03;;;1.80;;
19107;SDS011;9686;48.832;9.126;2023-11-22T11:56:29;2.97;;;2.10;;
19107;SDS011;9686;48.832;9.126;2023-11-22T11:58:55;2.30;;;2.10;;
19107;SDS011;9686;48.832;9.126;2023-11-22T12:01:23;1.90;;;1.77;;
19107;SDS011;9686;48.832;9.126;2023-11-22T12:03:49;2.30;;;1.57;;
19107;SDS011;9686;48.832;9.126;2023-11-22T12:06:14;2.90;;;2.30;;
19107;SDS011;9686;48.832;9.126;2023-11-22T12:08:41;1.77;;;1.67;;
19107;SDS011;9686;48.832;9.126;2023-11-22T12:11:06;2.03;;;1.80;;
19107;SDS011;9686;48.832;9.126;2023-11-22T12:13:33;3.77;;;2.33;;
19107;SDS011;9686;48.832;9.126;2023-11-22T12:16:00;5.53;;;2.27;;
19107;SDS011;9686;48.832;9.126;2023-11-22T12:18:28;2.20;;;2.00;;
19107;SDS011;9686;48.832;9.126;2023-11-22T12:20:56;2.30;;;1.80;;
19107;SDS011;9686;48.832;9.126;2023-11-22T12:23:26;7.70;;;1.90;;
19107;SDS011;9686;48.832;9.126;2023-11-22T12:25:55;2.90;;;2.13;;
19107;SDS011;9686;48.832;9.126;2023-11-22T12:28:22;3.57;;;2.20;;
19107;SDS011;9686;48.832;9.126;2023-11-22T12:30:49;2.33;;;2.13;;
19107;SDS011;9686;48.832;9.126;2023-11-22T12:33:16;3.27;;;2.57;;
19107;SDS011;9686;48.832;9.126;2023-11-22T12:35:43;3.60;;;2.10;;
19107;SDS011;9686;48.832;9.126;2023-11-22T12:38:09;2.83;;;2.13;;
19107;SDS011;9686;48.832;9.126;2023-11-22T12:40:34;1.87;;;1.77;;
19107;SDS011;9686;48.832;9.126;2023-11-22T12:43:00;3.80;;;2.67;;
19107;SDS011;9686;48.832;9.126;2023-11-22T12:45:28;2.20;;;2.00;;
19107;SDS011;9686;48.832;9.126;2023-11-22T12:47:55;2.60;;;2.23;;
19107;SDS011;9686;48.832;9.126;2023-11-22T12:50:37;3.00;;;2.43;;
19107;SDS011;9686;48.832;9.126;2023-11-22T12:53:16;2.57;;;2.30;;
19107;SDS011;9686;48.832;9.126;2023-11-22T12:55:45;2.70;;;2.47;;
19107;SDS011;9686;48.832;9.126;2023-11-22T12:58:12;3.97;;;2.80;;
19107;SDS011;9686;48.832;9.126;2023-11-22T13:00:39;2.90;;;2.13;;
19107;SDS011;9686;48.832;9.126;2023-11-22T13:03:05;2.97;;;2.57;;
19107;SDS011;9686;48.832;9.126;2023-11-22T13:05:37;3.20;;;2.83;;
19107;SDS011;9686;48.832;9.126;2023-11-22T13:08:03;7.30;;;2.40;;
19107;SDS011;9686;48.832;9.126;2023-11-22T13:10:29;3.60;;;2.70;;
19107;SDS011;9686;48.832;9.126;2023-11-22T13:12:55;2.87;;;2.50;;
19107;SDS011;9686;48.832;9.126;2023-11-22T13:15:21;3.27;;;2.27;;
19107;SDS011;9686;48.832;9.126;2023-11-22T13:17:54;6.37;;;2.87;;
19107;SDS011;9686;48.832;9.126;2023-11-22T13:20:20;3.17;;;2.90;;
19107;SDS011;9686;48.832;9.126;2023-11-22T13:22:50;2.80;;;2.30;;
19107;SDS011;9686;48.832;9.126;2023-11-22T13:25:20;4.00;;;2.67;;
19107;SDS011;9686;48.832;9.126;2023-11-22T13:27:51;4.60;;;2.80;;
19107;SDS011;9686;48.832;9.126;2023-11-22T13:30:18;3.40;;;2.63;;
19107;SDS011;9686;48.832;9.126;2023-11-22T13:32:51;3.17;;;2.73;;
19107;SDS011;9686;48.832;9.126;2023-11-22T13:35:17;1.97;;;1.87;;
19107;SDS011;9686;48.832;9.126;2023-11-22T13:37:46;6.00;;;2.67;;
19107;SDS011;9686;48.832;9.126;2023-11-22T13:40:16;2.27;;;2.07;;
19107;SDS011;9686;48.832;9.126;2023-11-22T13:42:44;4.07;;;2.50;;
19107;SDS011;9686;48.832;9.126;2023-11-22T13:45:13;2.87;;;2.50;;
19107;SDS011;9686;48.832;9.126;2023-11-22T13:47:46;2.53;;;2.33;;
19107;SDS011;9686;48.832;9.126;2023-11-22T13:50:13;2.97;;;2.60;;
19107;SDS011;9686;48.832;9.126;2023-11-22T13:52:43;2.33;;;1.80;;
19107;SDS011;9686;48.832;9.126;2023-11-22T13:55:11;1.90;;;1.77;;
19107;SDS011;9686;48.832;9.126;2023-11-22T13:57:38;2.23;;;2.03;;
19107;SDS011;9686;48.832;9.126;2023-11-22T14:00:07;3.90;;;2.63;;
19107;SDS011;9686;48.832;9.126;2023-11-22T14:02:38;3.57;;;2.17;;
19107;SDS011;9686;48.832;9.126;2023-11-22T14:05:05;3.27;;;2.43;;
19107;SDS011;9686;48.832;9.126;2023-11-22T14:07:37;2.43;;;1.87;;
19107;SDS011;9686;48.832;9.126;2023-11-22T14:10:03;3.10;;;2.27;;
19107;SDS011;9686;48.832;9.126;2023-11-22T14:12:29;2.33;;;2.17;;
19107;SDS011;9686;48.832;9.126;2023-11-22T14:14:55;2.57;;;2.37;;
19107;SDS011;9686;48.832;9.126;2023-11-22T14:17:20;3.93;;;2.93;;
19107;SDS011;9686;48.832;9.126;2023-11-22T14:19:46;4.47;;;3.03;;
19107;SDS011;9686;48.832;9.126;2023-11-22T14:22:12;2.40;;;2.20;;
19107;SDS011;9686;48.832;9.126;2023-11-22T14:24:39;4.30;;;2.37;;
19107;SDS011;9686;48.832;9.126;2023-11-22T14:27:04;2.43;;;2.23;;
19107;SDS011;9686;48.832;9.126;2023-11-22T14:29:30;5.07;;;2.37;;
19107;SDS011;9686;48.832;9.126;2023-11-22T14:31:55;3.47;;;2.93;;
19107;SDS011;9686;48.832;9.126;2023-11-22T14:34:20;3.40;;;2.83;;
19107;SDS011;9686;48.832;9.126;2023-11-22T14:36:46;2.57;;;2.30;;
19107;SDS011;9686;48.832;9.126;2023-11-22T14:39:11;2.77;;;2.43;;
19107;SDS011;9686;48.832;9.126;2023-11-22T14:41:39;2.23;;;2.13;;
19107;SDS011;9686;48.832;9.126;2023-11-22T14:44:05;2.60;;;2.40;;
19107;SDS011;9686;48.832;9.126;2023-11-22T14:46:30;3.03;;;2.57;;
19107;SDS011;9686;48.832;9.126;2023-11-22T14:48:57;4.87;;;2.40;;
19107;SDS011;9686;48.832;9.126;2023-11-22T14:51:23;3.50;;;2.60;;
19107;SDS011;9686;48.832;9.126;2023-11-22T14:53:48;4.70;;;3.33;;
19107;SDS011;9686;48.832;9.126;2023-11-22T14:56:14;2.53;;;2.33;;
19107;SDS011;9686;48.832;9.126;2023-11-22T14:58:40;3.60;;;3.30;;
19107;SDS011;9686;48.832;9.126;2023-11-22T15:01:05;3.20;;;2.17;;
19107;SDS011;9686;48.832;9.126;2023-11-22T15:03:33;2.67;;;2.03;;